sensor_id;sensor_type;location;lat;lon;timestamp;P1;durP1;ratioP1;P2;durP2;ratioP2
27365;SDS011;14837;57.148;-2.144;2023-12-22T00:00:56;1.00;;;0.77;;
27365;SDS011;14837;57.148;-2.144;2023-12-22T00:03:23;1.27;;;0.60;;
27365;SDS011;14837;57.148;-2.144;2023-12-22T00:05:49;0.90;;;0.70;;
27365;SDS011;14837;57.148;-2.144;2023-12-22T00:08:16;1.27;;;0.90;;
27365;SDS011;14837;57.148;-2.144;2023-12-22T00:10:42;1.77;;;0.68;;
27365;SDS011;14837;57.148;-2.144;2023-12-22T00:13:09;1.17;;;0.63;;
27365;SDS011;14837;57.148;-2.144;2023-12-22T00:15:35;0.88;;;0.70;;
27365;SDS011;14837;57.148;-2.144;2023-12-22T00:18:02;3.15;;;0.60;;
27365;SDS011;14837;57.148;-2.144;2023-12-22T00:20:29;1.45;;;0.52;;
27365;SDS011;14837;57.148;-2.144;2023-12-22T00:22:55;0.60;;;0.57;;
27365;SDS011;14837;57.148;-2.144;2023-12-22T00:25:22;0.80;;;0.50;;
27365;SDS011;14837;57.148;-2.144;2023-12-22T00:27:48;1.00;;;0.50;;
27365;SDS011;14837;57.148;-2.144;2023-12-22T00:30:15;0.85;;;0.60;;
27365;SDS011;14837;57.148;-2.144;2023-12-22T00:32:42;2.63;;;1.70;;
27365;SDS011;14837;57.148;-2.144;2023-12-22T00:35:09;0.90;;;0.60;;
27365;SDS011;14837;57.148;-2.144;2023-12-22T00:37:35;0.90;;;0.50;;
27365;SDS011;14837;57.148;-2.144;2023-12-22T00:40:02;2.00;;;0.60;;
27365;SDS011;14837;57.148;-2.144;2023-12-22T00:42:31;1.30;;;0.50;;
27365;SDS011;14837;57.148;-2.144;2023-12-22T00:44:58;0.88;;;0.60;;
27365;SDS011;14837;57.148;-2.144;2023-12-22T00:47:24;1.65;;;0.75;;
27365;SDS011;14837;57.148;-2.144;2023-12-22T00:49:51;1.15;;;0.70;;
27365;SDS011;14837;57.148;-2.144;2023-12-22T00:52:17;1.98;;;0.70;;
27365;SDS011;14837;57.148;-2.144;2023-12-22T00:54:44;1.38;;;0.70;;
27365;SDS011;14837;57.148;-2.144;2023-12-22T00:57:11;1.38;;;0.70;;
27365;SDS011;14837;57.148;-2.144;2023-12-22T00:59:38;2.25;;;0.70;;
27365;SDS011;14837;57.148;-2.144;2023-12-22T01:02:08;0.75;;;0.60;;
27365;SDS011;14837;57.148;-2.144;2023-12-22T01:04:35;1.45;;;0.70;;
27365;SDS011;14837;57.148;-2.144;2023-12-22T01:07:01;4.03;;;0.90;;
27365;SDS011;14837;57.148;-2.144;2023-12-22T01:09:28;0.85;;;0.70;;
27365;SDS011;14837;57.148;-2.144;2023-12-22T01:11:54;3.47;;;1.13;;
27365;SDS011;14837;57.148;-2.144;2023-12-22T01:14:21;1.23;;;0.70;;
27365;SDS011;14837;57.148;-2.144;2023-12-22T01:16:47;1.95;;;0.70;;
27365;SDS011;14837;57.148;-2.144;2023-12-22T01:19:14;4.22;;;0.90;;
27365;SDS011;14837;57.148;-2.144;2023-12-22T01:21:41;3.65;;;0.70;;
27365;SDS011;14837;57.148;-2.144;2023-12-22T01:24:08;2.20;;;1.27;;
27365;SDS011;14837;57.148;-2.144;2023-12-22T01:26:34;2.88;;;0.90;;
27365;SDS011;14837;57.148;-2.144;2023-12-22T01:29:01;2.83;;;0.93;;
27365;SDS011;14837;57.148;-2.144;2023-12-22T01:31:28;1.58;;;0.70;;
27365;SDS011;14837;57.148;-2.144;2023-12-22T01:33:55;2.45;;;1.13;;
27365;SDS011;14837;57.148;-2.144;2023-12-22T01:36:21;1.80;;;1.05;;
27365;SDS011;14837;57.148;-2.144;2023-12-22T01:38:48;1.23;;;0.80;;
27365;SDS011;14837;57.148;-2.144;2023-12-22T01:41:14;4.05;;;1.02;;
27365;SDS011;14837;57.148;-2.144;2023-12-22T01:43:41;2.40;;;1.00;;
27365;SDS011;14837;57.148;-2.144;2023-12-22T01:46:08;2.80;;;1.33;;
27365;SDS011;14837;57.148;-2.144;2023-12-22T01:48:36;3.58;;;1.52;;
27365;SDS011;14837;57.148;-2.144;2023-12-22T01:51:02;3.78;;;2.13;;
27365;SDS011;14837;57.148;-2.144;2023-12-22T01:53:30;4.45;;;2.08;;
27365;SDS011;14837;57.148;-2.144;2023-12-22T01:55:57;2.60;;;1.20;;
27365;SDS011;14837;57.148;-2.144;2023-12-22T01:58:26;5.10;;;1.52;;
27365;SDS011;14837;57.148;-2.144;2023-12-22T02:00:53;2.65;;;1.10;;
27365;SDS011;14837;57.148;-2.144;2023-12-22T02:03:19;3.65;;;1.67;;
27365;SDS011;14837;57.148;-2.144;2023-12-22T02:05:46;4.38;;;1.50;;
27365;SDS011;14837;57.148;-2.144;2023-12-22T02:08:13;3.92;;;1.30;;
27365;SDS011;14837;57.148;-2.144;2023-12-22T02:10:41;3.17;;;1.35;;
27365;SDS011;14837;57.148;-2.144;2023-12-22T02:13:08;5.82;;;1.85;;
27365;SDS011;14837;57.148;-2.144;2023-12-22T02:15:35;2.17;;;1.27;;
27365;SDS011;14837;57.148;-2.144;2023-12-22T02:20:34;2.13;;;1.05;;
27365;SDS011;14837;57.148;-2.144;2023-12-22T02:23:01;4.13;;;1.10;;
27365;SDS011;14837;57.148;-2.144;2023-12-22T02:25:27;3.10;;;1.73;;
27365;SDS011;14837;57.148;-2.144;2023-12-22T02:27:57;2.78;;;1.20;;
27365;SDS011;14837;57.148;-2.144;2023-12-22T02:30:46;3.60;;;1.55;;
27365;SDS011;14837;57.148;-2.144;2023-12-22T02:33:17;4.82;;;1.30;;
27365;SDS011;14837;57.148;-2.144;2023-12-22T02:35:44;5.18;;;1.67;;
27365;SDS011;14837;57.148;-2.144;2023-12-22T02:38:13;3.55;;;1.33;;
27365;SDS011;14837;57.148;-2.144;2023-12-22T02:40:41;2.45;;;1.40;;
27365;SDS011;14837;57.148;-2.144;2023-12-22T02:43:08;4.40;;;1.58;;
27365;SDS011;14837;57.148;-2.144;2023-12-22T02:45:35;3.70;;;1.50;;
27365;SDS011;14837;57.148;-2.144;2023-12-22T02:48:02;2.13;;;1.20;;
27365;SDS011;14837;57.148;-2.144;2023-12-22T02:50:29;3.55;;;1.00;;
27365;SDS011;14837;57.148;-2.144;2023-12-22T02:52:55;2.03;;;1.17;;
27365;SDS011;14837;57.148;-2.144;2023-12-22T02:55:22;4.20;;;1.23;;
27365;SDS011;14837;57.148;-2.144;2023-12-22T02:57:48;3.33;;;1.52;;
27365;SDS011;14837;57.148;-2.144;2023-12-22T03:00:15;3.42;;;1.17;;
27365;SDS011;14837;57.148;-2.144;2023-12-22T03:02:42;2.22;;;0.85;;
27365;SDS011;14837;57.148;-2.144;2023-12-22T03:05:08;1.88;;;0.90;;
27365;SDS011;14837;57.148;-2.144;2023-12-22T03:07:35;1.30;;;0.80;;
27365;SDS011;14837;57.148;-2.144;2023-12-22T03:10:01;1.75;;;0.95;;
27365;SDS011;14837;57.148;-2.144;2023-12-22T03:12:28;2.78;;;1.13;;
27365;SDS011;14837;57.148;-2.144;2023-12-22T03:14:54;1.50;;;0.65;;
27365;SDS011;14837;57.148;-2.144;2023-12-22T03:17:21;0.90;;;0.60;;
27365;SDS011;14837;57.148;-2.144;2023-12-22T03:19:47;1.88;;;1.23;;
27365;SDS011;14837;57.148;-2.144;2023-12-22T03:22:14;1.75;;;0.80;;
27365;SDS011;14837;57.148;-2.144;2023-12-22T03:24:40;1.38;;;0.85;;
27365;SDS011;14837;57.148;-2.144;2023-12-22T03:27:07;2.08;;;0.90;;
27365;SDS011;14837;57.148;-2.144;2023-12-22T03:29:33;0.93;;;0.70;;
27365;SDS011;14837;57.148;-2.144;2023-12-22T03:32:00;1.40;;;0.80;;
27365;SDS011;14837;57.148;-2.144;2023-12-22T03:34:27;4.40;;;0.80;;
27365;SDS011;14837;57.148;-2.144;2023-12-22T03:36:53;2.00;;;0.75;;
27365;SDS011;14837;57.148;-2.144;2023-12-22T03:39:20;0.77;;;0.50;;
27365;SDS011;14837;57.148;-2.144;2023-12-22T03:41:46;1.50;;;0.90;;
27365;SDS011;14837;57.148;-2.144;2023-12-22T03:44:13;1.02;;;0.50;;
27365;SDS011;14837;57.148;-2.144;2023-12-22T03:46:39;1.20;;;0.60;;
27365;SDS011;14837;57.148;-2.144;2023-12-22T03:49:06;0.95;;;0.50;;
27365;SDS011;14837;57.148;-2.144;2023-12-22T03:51:32;1.38;;;0.50;;
27365;SDS011;14837;57.148;-2.144;2023-12-22T03:53:59;2.50;;;0.70;;
27365;SDS011;14837;57.148;-2.144;2023-12-22T03:56:26;0.57;;;0.57;;
27365;SDS011;14837;57.148;-2.144;2023-12-22T03:58:52;1.52;;;0.52;;
27365;SDS011;14837;57.148;-2.144;2023-12-22T04:01:19;1.25;;;0.60;;
27365;SDS011;14837;57.148;-2.144;2023-12-22T04:03:46;0.75;;;0.50;;
27365;SDS011;14837;57.148;-2.144;2023-12-22T04:06:12;0.98;;;0.40;;
27365;SDS011;14837;57.148;-2.144;2023-12-22T04:08:39;0.60;;;0.40;;
27365;SDS011;14837;57.148;-2.144;2023-12-22T04:11:05;0.30;;;0.30;;
27365;SDS011;14837;57.148;-2.144;2023-12-22T04:13:32;0.57;;;0.47;;
27365;SDS011;14837;57.148;-2.144;2023-12-22T04:15:58;0.68;;;0.50;;
27365;SDS011;14837;57.148;-2.144;2023-12-22T04:18:25;0.73;;;0.40;;
27365;SDS011;14837;57.148;-2.144;2023-12-22T04:20:52;0.82;;;0.30;;
27365;SDS011;14837;57.148;-2.144;2023-12-22T04:23:21;1.40;;;0.73;;
27365;SDS011;14837;57.148;-2.144;2023-12-22T04:25:48;0.43;;;0.43;;
27365;SDS011;14837;57.148;-2.144;2023-12-22T04:28:15;0.88;;;0.40;;
27365;SDS011;14837;57.148;-2.144;2023-12-22T04:30:41;0.68;;;0.35;;
27365;SDS011;14837;57.148;-2.144;2023-12-22T04:33:08;0.22;;;0.22;;
27365;SDS011;14837;57.148;-2.144;2023-12-22T04:35:34;0.30;;;0.30;;
27365;SDS011;14837;57.148;-2.144;2023-12-22T04:38:01;0.30;;;0.30;;
27365;SDS011;14837;57.148;-2.144;2023-12-22T04:40:28;0.38;;;0.38;;
27365;SDS011;14837;57.148;-2.144;2023-12-22T04:42:54;0.50;;;0.38;;
27365;SDS011;14837;57.148;-2.144;2023-12-22T04:45:21;0.30;;;0.30;;
27365;SDS011;14837;57.148;-2.144;2023-12-22T04:47:48;0.30;;;0.30;;
27365;SDS011;14837;57.148;-2.144;2023-12-22T04:50:15;0.32;;;0.32;;
27365;SDS011;14837;57.148;-2.144;2023-12-22T04:52:41;0.50;;;0.40;;
27365;SDS011;14837;57.148;-2.144;2023-12-22T04:55:08;0.30;;;0.30;;
27365;SDS011;14837;57.148;-2.144;2023-12-22T04:57:35;0.38;;;0.30;;
27365;SDS011;14837;57.148;-2.144;2023-12-22T05:00:01;0.30;;;0.30;;
27365;SDS011;14837;57.148;-2.144;2023-12-22T05:02:28;1.10;;;0.50;;
27365;SDS011;14837;57.148;-2.144;2023-12-22T05:04:55;0.30;;;0.30;;
27365;SDS011;14837;57.148;-2.144;2023-12-22T05:07:22;0.30;;;0.30;;
27365;SDS011;14837;57.148;-2.144;2023-12-22T05:09:48;0.30;;;0.30;;
27365;SDS011;14837;57.148;-2.144;2023-12-22T05:12:15;0.30;;;0.30;;
27365;SDS011;14837;57.148;-2.144;2023-12-22T05:14:41;0.30;;;0.30;;
27365;SDS011;14837;57.148;-2.144;2023-12-22T05:17:08;0.30;;;0.30;;
27365;SDS011;14837;57.148;-2.144;2023-12-22T05:19:34;0.22;;;0.22;;
27365;SDS011;14837;57.148;-2.144;2023-12-22T05:22:01;0.65;;;0.20;;
27365;SDS011;14837;57.148;-2.144;2023-12-22T05:24:27;0.20;;;0.20;;
27365;SDS011;14837;57.148;-2.144;2023-12-22T05:26:54;0.30;;;0.30;;
27365;SDS011;14837;57.148;-2.144;2023-12-22T05:29:21;0.30;;;0.30;;
27365;SDS011;14837;57.148;-2.144;2023-12-22T05:31:47;0.30;;;0.30;;
27365;SDS011;14837;57.148;-2.144;2023-12-22T05:34:14;0.20;;;0.20;;
27365;SDS011;14837;57.148;-2.144;2023-12-22T05:36:40;0.22;;;0.22;;
27365;SDS011;14837;57.148;-2.144;2023-12-22T05:39:07;0.20;;;0.20;;
27365;SDS011;14837;57.148;-2.144;2023-12-22T05:41:37;0.22;;;0.22;;
27365;SDS011;14837;57.148;-2.144;2023-12-22T05:44:04;0.40;;;0.40;;
27365;SDS011;14837;57.148;-2.144;2023-12-22T05:46:35;0.25;;;0.25;;
27365;SDS011;14837;57.148;-2.144;2023-12-22T05:49:02;1.05;;;0.30;;
27365;SDS011;14837;57.148;-2.144;2023-12-22T05:51:29;0.30;;;0.30;;
27365;SDS011;14837;57.148;-2.144;2023-12-22T05:54:01;0.30;;;0.30;;
27365;SDS011;14837;57.148;-2.144;2023-12-22T05:56:28;0.32;;;0.30;;
27365;SDS011;14837;57.148;-2.144;2023-12-22T05:58:55;0.40;;;0.30;;
27365;SDS011;14837;57.148;-2.144;2023-12-22T06:01:22;0.30;;;0.30;;
27365;SDS011;14837;57.148;-2.144;2023-12-22T06:03:49;0.30;;;0.30;;
27365;SDS011;14837;57.148;-2.144;2023-12-22T06:06:15;0.40;;;0.30;;
27365;SDS011;14837;57.148;-2.144;2023-12-22T06:08:42;0.30;;;0.30;;
27365;SDS011;14837;57.148;-2.144;2023-12-22T06:11:08;0.80;;;0.30;;
27365;SDS011;14837;57.148;-2.144;2023-12-22T06:13:35;0.30;;;0.30;;
27365;SDS011;14837;57.148;-2.144;2023-12-22T06:16:01;0.30;;;0.30;;
27365;SDS011;14837;57.148;-2.144;2023-12-22T06:18:28;0.30;;;0.30;;
27365;SDS011;14837;57.148;-2.144;2023-12-22T06:20:55;0.38;;;0.30;;
27365;SDS011;14837;57.148;-2.144;2023-12-22T06:23:21;0.30;;;0.30;;
27365;SDS011;14837;57.148;-2.144;2023-12-22T06:25:48;0.40;;;0.40;;
27365;SDS011;14837;57.148;-2.144;2023-12-22T06:28:14;0.35;;;0.30;;
27365;SDS011;14837;57.148;-2.144;2023-12-22T06:30:43;0.40;;;0.30;;
27365;SDS011;14837;57.148;-2.144;2023-12-22T06:33:10;0.38;;;0.32;;
27365;SDS011;14837;57.148;-2.144;2023-12-22T06:35:38;0.40;;;0.30;;
27365;SDS011;14837;57.148;-2.144;2023-12-22T06:38:07;0.55;;;0.40;;
27365;SDS011;14837;57.148;-2.144;2023-12-22T06:40:34;2.35;;;0.35;;
27365;SDS011;14837;57.148;-2.144;2023-12-22T06:43:01;0.40;;;0.28;;
27365;SDS011;14837;57.148;-2.144;2023-12-22T06:45:27;0.25;;;0.25;;
27365;SDS011;14837;57.148;-2.144;2023-12-22T06:47:54;0.30;;;0.30;;
27365;SDS011;14837;57.148;-2.144;2023-12-22T06:50:22;0.30;;;0.30;;
27365;SDS011;14837;57.148;-2.144;2023-12-22T06:52:48;1.52;;;0.30;;
27365;SDS011;14837;57.148;-2.144;2023-12-22T06:55:16;0.35;;;0.30;;
27365;SDS011;14837;57.148;-2.144;2023-12-22T06:57:43;0.52;;;0.40;;
27365;SDS011;14837;57.148;-2.144;2023-12-22T07:00:11;0.20;;;0.20;;
27365;SDS011;14837;57.148;-2.144;2023-12-22T07:02:38;0.40;;;0.40;;
27365;SDS011;14837;57.148;-2.144;2023-12-22T07:07:51;0.30;;;0.30;;
27365;SDS011;14837;57.148;-2.144;2023-12-22T07:10:18;0.28;;;0.28;;
27365;SDS011;14837;57.148;-2.144;2023-12-22T07:12:45;0.30;;;0.30;;
27365;SDS011;14837;57.148;-2.144;2023-12-22T07:15:12;0.20;;;0.20;;
27365;SDS011;14837;57.148;-2.144;2023-12-22T07:17:38;0.38;;;0.35;;
27365;SDS011;14837;57.148;-2.144;2023-12-22T07:20:05;0.30;;;0.30;;
27365;SDS011;14837;57.148;-2.144;2023-12-22T07:22:32;0.30;;;0.30;;
27365;SDS011;14837;57.148;-2.144;2023-12-22T07:24:59;0.20;;;0.20;;
27365;SDS011;14837;57.148;-2.144;2023-12-22T07:27:25;0.20;;;0.20;;
27365;SDS011;14837;57.148;-2.144;2023-12-22T07:29:53;0.30;;;0.30;;
27365;SDS011;14837;57.148;-2.144;2023-12-22T07:32:20;0.30;;;0.30;;
27365;SDS011;14837;57.148;-2.144;2023-12-22T07:34:47;0.30;;;0.30;;
27365;SDS011;14837;57.148;-2.144;2023-12-22T07:37:13;0.30;;;0.30;;
27365;SDS011;14837;57.148;-2.144;2023-12-22T07:39:40;0.28;;;0.28;;
27365;SDS011;14837;57.148;-2.144;2023-12-22T07:42:08;0.30;;;0.30;;
27365;SDS011;14837;57.148;-2.144;2023-12-22T07:44:34;0.20;;;0.20;;
27365;SDS011;14837;57.148;-2.144;2023-12-22T07:47:01;0.30;;;0.30;;
27365;SDS011;14837;57.148;-2.144;2023-12-22T07:49:29;0.30;;;0.30;;
27365;SDS011;14837;57.148;-2.144;2023-12-22T07:51:57;0.30;;;0.30;;
27365;SDS011;14837;57.148;-2.144;2023-12-22T07:54:24;0.40;;;0.40;;
27365;SDS011;14837;57.148;-2.144;2023-12-22T07:56:52;0.30;;;0.30;;
27365;SDS011;14837;57.148;-2.144;2023-12-22T07:59:18;0.28;;;0.28;;
27365;SDS011;14837;57.148;-2.144;2023-12-22T08:01:56;0.25;;;0.25;;
27365;SDS011;14837;57.148;-2.144;2023-12-22T08:04:23;0.25;;;0.25;;
27365;SDS011;14837;57.148;-2.144;2023-12-22T08:06:49;0.32;;;0.32;;
27365;SDS011;14837;57.148;-2.144;2023-12-22T08:09:16;0.22;;;0.22;;
27365;SDS011;14837;57.148;-2.144;2023-12-22T08:11:43;0.20;;;0.20;;
27365;SDS011;14837;57.148;-2.144;2023-12-22T08:14:12;0.30;;;0.30;;
27365;SDS011;14837;57.148;-2.144;2023-12-22T08:16:39;0.40;;;0.40;;
27365;SDS011;14837;57.148;-2.144;2023-12-22T08:19:06;0.20;;;0.20;;
27365;SDS011;14837;57.148;-2.144;2023-12-22T08:21:33;0.30;;;0.30;;
27365;SDS011;14837;57.148;-2.144;2023-12-22T08:24:11;1.13;;;0.40;;
27365;SDS011;14837;57.148;-2.144;2023-12-22T08:26:47;0.30;;;0.30;;
27365;SDS011;14837;57.148;-2.144;2023-12-22T08:29:14;0.30;;;0.30;;
27365;SDS011;14837;57.148;-2.144;2023-12-22T08:31:42;0.20;;;0.20;;
27365;SDS011;14837;57.148;-2.144;2023-12-22T08:34:10;0.20;;;0.20;;
27365;SDS011;14837;57.148;-2.144;2023-12-22T08:36:37;0.30;;;0.20;;
27365;SDS011;14837;57.148;-2.144;2023-12-22T08:39:04;0.30;;;0.30;;
27365;SDS011;14837;57.148;-2.144;2023-12-22T08:41:34;0.95;;;0.43;;
27365;SDS011;14837;57.148;-2.144;2023-12-22T08:44:04;0.50;;;0.30;;
27365;SDS011;14837;57.148;-2.144;2023-12-22T08:46:31;0.32;;;0.30;;
27365;SDS011;14837;57.148;-2.144;2023-12-22T08:48:58;0.30;;;0.30;;
27365;SDS011;14837;57.148;-2.144;2023-12-22T08:51:26;0.40;;;0.30;;
27365;SDS011;14837;57.148;-2.144;2023-12-22T08:53:53;0.30;;;0.30;;
27365;SDS011;14837;57.148;-2.144;2023-12-22T08:56:24;1.90;;;0.50;;
27365;SDS011;14837;57.148;-2.144;2023-12-22T08:58:51;0.30;;;0.30;;
27365;SDS011;14837;57.148;-2.144;2023-12-22T09:01:18;0.30;;;0.30;;
27365;SDS011;14837;57.148;-2.144;2023-12-22T09:03:46;0.47;;;0.30;;
27365;SDS011;14837;57.148;-2.144;2023-12-22T09:08:42;0.30;;;0.30;;
27365;SDS011;14837;57.148;-2.144;2023-12-22T09:11:13;0.40;;;0.40;;
27365;SDS011;14837;57.148;-2.144;2023-12-22T09:13:43;0.57;;;0.40;;
27365;SDS011;14837;57.148;-2.144;2023-12-22T09:16:10;0.57;;;0.40;;
27365;SDS011;14837;57.148;-2.144;2023-12-22T09:18:37;0.93;;;0.40;;
27365;SDS011;14837;57.148;-2.144;2023-12-22T09:21:04;1.40;;;0.50;;
27365;SDS011;14837;57.148;-2.144;2023-12-22T09:23:30;1.30;;;1.20;;
27365;SDS011;14837;57.148;-2.144;2023-12-22T09:25:58;0.98;;;0.50;;
27365;SDS011;14837;57.148;-2.144;2023-12-22T09:28:25;1.10;;;0.60;;
27365;SDS011;14837;57.148;-2.144;2023-12-22T09:30:52;1.48;;;0.70;;
27365;SDS011;14837;57.148;-2.144;2023-12-22T09:33:19;1.15;;;0.80;;
27365;SDS011;14837;57.148;-2.144;2023-12-22T09:35:45;1.02;;;0.65;;
27365;SDS011;14837;57.148;-2.144;2023-12-22T09:38:12;1.67;;;0.80;;
27365;SDS011;14837;57.148;-2.144;2023-12-22T09:40:39;1.02;;;0.55;;
27365;SDS011;14837;57.148;-2.144;2023-12-22T09:43:06;0.65;;;0.50;;
27365;SDS011;14837;57.148;-2.144;2023-12-22T09:45:33;0.70;;;0.70;;
27365;SDS011;14837;57.148;-2.144;2023-12-22T09:48:00;1.23;;;0.60;;
27365;SDS011;14837;57.148;-2.144;2023-12-22T09:50:27;3.13;;;0.57;;
27365;SDS011;14837;57.148;-2.144;2023-12-22T09:52:55;1.42;;;0.80;;
27365;SDS011;14837;57.148;-2.144;2023-12-22T09:55:21;1.05;;;0.60;;
27365;SDS011;14837;57.148;-2.144;2023-12-22T09:57:52;1.05;;;0.60;;
27365;SDS011;14837;57.148;-2.144;2023-12-22T10:00:18;0.80;;;0.50;;
27365;SDS011;14837;57.148;-2.144;2023-12-22T10:02:45;2.10;;;0.50;;
27365;SDS011;14837;57.148;-2.144;2023-12-22T10:05:12;0.40;;;0.40;;
27365;SDS011;14837;57.148;-2.144;2023-12-22T10:07:43;0.88;;;0.38;;
27365;SDS011;14837;57.148;-2.144;2023-12-22T10:10:11;0.63;;;0.50;;
27365;SDS011;14837;57.148;-2.144;2023-12-22T10:12:38;0.57;;;0.50;;
27365;SDS011;14837;57.148;-2.144;2023-12-22T10:15:06;0.82;;;0.63;;
27365;SDS011;14837;57.148;-2.144;2023-12-22T10:17:34;1.50;;;0.70;;
27365;SDS011;14837;57.148;-2.144;2023-12-22T10:20:01;2.78;;;1.85;;
27365;SDS011;14837;57.148;-2.144;2023-12-22T10:22:27;0.68;;;0.52;;
27365;SDS011;14837;57.148;-2.144;2023-12-22T10:24:54;2.17;;;1.70;;
27365;SDS011;14837;57.148;-2.144;2023-12-22T10:27:21;0.73;;;0.70;;
27365;SDS011;14837;57.148;-2.144;2023-12-22T10:29:54;1.02;;;0.80;;
27365;SDS011;14837;57.148;-2.144;2023-12-22T10:32:21;2.00;;;0.80;;
27365;SDS011;14837;57.148;-2.144;2023-12-22T10:34:48;1.20;;;0.80;;
27365;SDS011;14837;57.148;-2.144;2023-12-22T10:37:15;0.75;;;0.68;;
27365;SDS011;14837;57.148;-2.144;2023-12-22T10:39:41;0.57;;;0.50;;
27365;SDS011;14837;57.148;-2.144;2023-12-22T10:42:08;2.75;;;0.73;;
27365;SDS011;14837;57.148;-2.144;2023-12-22T10:44:36;0.75;;;0.57;;
27365;SDS011;14837;57.148;-2.144;2023-12-22T10:47:06;1.42;;;0.73;;
27365;SDS011;14837;57.148;-2.144;2023-12-22T10:49:33;1.77;;;0.55;;
27365;SDS011;14837;57.148;-2.144;2023-12-22T10:52:00;2.58;;;0.70;;
27365;SDS011;14837;57.148;-2.144;2023-12-22T10:54:27;0.88;;;0.60;;
27365;SDS011;14837;57.148;-2.144;2023-12-22T10:56:55;1.30;;;0.68;;
27365;SDS011;14837;57.148;-2.144;2023-12-22T10:59:23;1.80;;;0.70;;
27365;SDS011;14837;57.148;-2.144;2023-12-22T11:01:54;1.40;;;0.40;;
27365;SDS011;14837;57.148;-2.144;2023-12-22T11:04:23;1.80;;;0.50;;
27365;SDS011;14837;57.148;-2.144;2023-12-22T11:06:52;1.10;;;0.60;;
27365;SDS011;14837;57.148;-2.144;2023-12-22T11:09:20;2.35;;;0.82;;
27365;SDS011;14837;57.148;-2.144;2023-12-22T11:11:48;1.63;;;0.95;;
27365;SDS011;14837;57.148;-2.144;2023-12-22T11:14:15;1.10;;;0.70;;
27365;SDS011;14837;57.148;-2.144;2023-12-22T11:16:43;3.10;;;1.75;;
27365;SDS011;14837;57.148;-2.144;2023-12-22T11:19:14;1.55;;;0.80;;
27365;SDS011;14837;57.148;-2.144;2023-12-22T11:21:41;2.08;;;0.55;;
27365;SDS011;14837;57.148;-2.144;2023-12-22T11:24:09;3.53;;;0.70;;
27365;SDS011;14837;57.148;-2.144;2023-12-22T11:26:37;1.00;;;0.55;;
27365;SDS011;14837;57.148;-2.144;2023-12-22T11:29:04;3.53;;;0.90;;
27365;SDS011;14837;57.148;-2.144;2023-12-22T11:31:33;1.08;;;0.63;;
27365;SDS011;14837;57.148;-2.144;2023-12-22T11:34:00;1.38;;;0.80;;
27365;SDS011;14837;57.148;-2.144;2023-12-22T11:36:37;2.13;;;0.60;;
27365;SDS011;14837;57.148;-2.144;2023-12-22T11:39:04;0.80;;;0.43;;
27365;SDS011;14837;57.148;-2.144;2023-12-22T11:41:32;2.45;;;0.70;;
27365;SDS011;14837;57.148;-2.144;2023-12-22T11:44:00;2.13;;;1.17;;
27365;SDS011;14837;57.148;-2.144;2023-12-22T11:46:27;2.28;;;0.70;;
27365;SDS011;14837;57.148;-2.144;2023-12-22T11:48:56;2.53;;;0.77;;
27365;SDS011;14837;57.148;-2.144;2023-12-22T11:51:23;0.93;;;0.50;;
27365;SDS011;14837;57.148;-2.144;2023-12-22T11:53:52;1.17;;;0.70;;
27365;SDS011;14837;57.148;-2.144;2023-12-22T11:56:19;0.93;;;0.70;;
27365;SDS011;14837;57.148;-2.144;2023-12-22T11:58:47;1.20;;;0.73;;
27365;SDS011;14837;57.148;-2.144;2023-12-22T12:01:18;0.93;;;0.60;;
27365;SDS011;14837;57.148;-2.144;2023-12-22T12:06:15;1.77;;;0.73;;
27365;SDS011;14837;57.148;-2.144;2023-12-22T12:08:45;1.23;;;0.70;;
27365;SDS011;14837;57.148;-2.144;2023-12-22T12:11:11;2.25;;;1.05;;
27365;SDS011;14837;57.148;-2.144;2023-12-22T12:13:41;1.23;;;0.70;;
27365;SDS011;14837;57.148;-2.144;2023-12-22T12:16:08;1.33;;;0.60;;
27365;SDS011;14837;57.148;-2.144;2023-12-22T12:18:34;1.17;;;0.88;;
27365;SDS011;14837;57.148;-2.144;2023-12-22T12:21:01;0.65;;;0.50;;
27365;SDS011;14837;57.148;-2.144;2023-12-22T12:23:27;1.77;;;0.80;;
27365;SDS011;14837;57.148;-2.144;2023-12-22T12:25:54;2.15;;;0.63;;
27365;SDS011;14837;57.148;-2.144;2023-12-22T12:28:25;1.33;;;0.65;;
27365;SDS011;14837;57.148;-2.144;2023-12-22T12:30:56;2.17;;;0.75;;
27365;SDS011;14837;57.148;-2.144;2023-12-22T12:33:25;0.77;;;0.63;;
27365;SDS011;14837;57.148;-2.144;2023-12-22T12:35:52;2.40;;;1.45;;
27365;SDS011;14837;57.148;-2.144;2023-12-22T12:38:43;0.95;;;0.60;;
27365;SDS011;14837;57.148;-2.144;2023-12-22T12:41:07;1.73;;;0.70;;
27365;SDS011;14837;57.148;-2.144;2023-12-22T12:43:36;1.13;;;0.65;;
27365;SDS011;14837;57.148;-2.144;2023-12-22T12:46:05;1.15;;;1.00;;
27365;SDS011;14837;57.148;-2.144;2023-12-22T12:48:32;1.25;;;1.10;;
27365;SDS011;14837;57.148;-2.144;2023-12-22T12:51:05;1.60;;;1.00;;
27365;SDS011;14837;57.148;-2.144;2023-12-22T12:53:32;1.02;;;0.80;;
27365;SDS011;14837;57.148;-2.144;2023-12-22T12:56:00;1.83;;;1.17;;
27365;SDS011;14837;57.148;-2.144;2023-12-22T12:58:27;0.85;;;0.70;;
27365;SDS011;14837;57.148;-2.144;2023-12-22T13:01:03;3.28;;;1.25;;
27365;SDS011;14837;57.148;-2.144;2023-12-22T13:03:29;0.73;;;0.57;;
27365;SDS011;14837;57.148;-2.144;2023-12-22T13:06:08;1.05;;;0.60;;
27365;SDS011;14837;57.148;-2.144;2023-12-22T13:08:35;0.40;;;0.40;;
27365;SDS011;14837;57.148;-2.144;2023-12-22T13:11:10;0.40;;;0.40;;
27365;SDS011;14837;57.148;-2.144;2023-12-22T13:13:43;0.40;;;0.35;;
27365;SDS011;14837;57.148;-2.144;2023-12-22T13:16:10;2.80;;;0.63;;
27365;SDS011;14837;57.148;-2.144;2023-12-22T13:18:37;0.63;;;0.50;;
27365;SDS011;14837;57.148;-2.144;2023-12-22T13:21:03;2.00;;;0.85;;
27365;SDS011;14837;57.148;-2.144;2023-12-22T13:23:30;1.38;;;0.85;;
27365;SDS011;14837;57.148;-2.144;2023-12-22T13:26:00;0.40;;;0.40;;
27365;SDS011;14837;57.148;-2.144;2023-12-22T13:28:26;0.55;;;0.55;;
27365;SDS011;14837;57.148;-2.144;2023-12-22T13:30:56;0.63;;;0.60;;
27365;SDS011;14837;57.148;-2.144;2023-12-22T13:33:22;1.00;;;0.68;;
27365;SDS011;14837;57.148;-2.144;2023-12-22T13:35:58;1.55;;;0.60;;
27365;SDS011;14837;57.148;-2.144;2023-12-22T13:38:24;1.90;;;0.80;;
27365;SDS011;14837;57.148;-2.144;2023-12-22T13:40:51;2.28;;;1.00;;
27365;SDS011;14837;57.148;-2.144;2023-12-22T13:43:18;1.63;;;0.98;;
27365;SDS011;14837;57.148;-2.144;2023-12-22T13:45:46;1.73;;;0.60;;
27365;SDS011;14837;57.148;-2.144;2023-12-22T13:48:15;0.82;;;0.63;;
27365;SDS011;14837;57.148;-2.144;2023-12-22T13:50:42;1.90;;;1.23;;
27365;SDS011;14837;57.148;-2.144;2023-12-22T13:53:09;0.85;;;0.70;;
27365;SDS011;14837;57.148;-2.144;2023-12-22T13:55:36;0.98;;;0.80;;
27365;SDS011;14837;57.148;-2.144;2023-12-22T13:58:04;1.02;;;0.75;;
27365;SDS011;14837;57.148;-2.144;2023-12-22T14:00:32;0.70;;;0.70;;
27365;SDS011;14837;57.148;-2.144;2023-12-22T14:03:00;1.38;;;0.60;;
27365;SDS011;14837;57.148;-2.144;2023-12-22T14:05:27;2.72;;;1.20;;
27365;SDS011;14837;57.148;-2.144;2023-12-22T14:08:00;1.10;;;0.60;;
27365;SDS011;14837;57.148;-2.144;2023-12-22T14:10:27;1.33;;;0.70;;
27365;SDS011;14837;57.148;-2.144;2023-12-22T14:12:54;3.28;;;0.80;;
27365;SDS011;14837;57.148;-2.144;2023-12-22T14:15:20;1.75;;;0.90;;
27365;SDS011;14837;57.148;-2.144;2023-12-22T14:17:52;2.35;;;1.55;;
27365;SDS011;14837;57.148;-2.144;2023-12-22T14:20:18;1.92;;;0.85;;
27365;SDS011;14837;57.148;-2.144;2023-12-22T14:22:46;1.20;;;1.10;;
27365;SDS011;14837;57.148;-2.144;2023-12-22T14:25:13;1.10;;;0.65;;
27365;SDS011;14837;57.148;-2.144;2023-12-22T14:27:39;1.65;;;0.77;;
27365;SDS011;14837;57.148;-2.144;2023-12-22T14:30:06;1.10;;;0.88;;
27365;SDS011;14837;57.148;-2.144;2023-12-22T14:32:32;3.60;;;1.00;;
27365;SDS011;14837;57.148;-2.144;2023-12-22T14:34:59;1.67;;;0.82;;
27365;SDS011;14837;57.148;-2.144;2023-12-22T14:37:31;1.67;;;0.88;;
27365;SDS011;14837;57.148;-2.144;2023-12-22T14:39:58;2.35;;;0.70;;
27365;SDS011;14837;57.148;-2.144;2023-12-22T14:42:24;1.35;;;0.93;;
27365;SDS011;14837;57.148;-2.144;2023-12-22T14:44:51;2.63;;;1.10;;